Time;durP1;ratioP1;P1;durP2;ratioP2;P2;SDS_P1;SDS_P2;PMS_P1;PMS_P2;Temp;Humidity;BMP_temperature;BMP_pressure;BME280_temperature;BME280_humidity;BME280_pressure;Samples;Min_cycle;Max_cycle;Signal;HPM_P1;HPM_P2
2021/10/02 00:31:39;;;;;;;7.40;6.40;;;;;;;16.73;62.36;96653.84;5083345;28;21189;-66
2021/10/02 00:44:42;;;;;;;8.33;6.40;;;;;;;16.60;62.89;96659.16;5096063;28;20420;-65
2021/10/02 00:47:11;;;;;;;12.70;7.30;;;;;;;16.70;62.33;96659.56;5092985;28;21695;-66
2021/10/02 00:49:39;;;;;;;7.77;5.43;;;;;;;16.67;62.38;96654.66;5094314;28;20423;-65
2021/10/02 00:52:07;;;;;;;10.10;6.80;;;;;;;16.75;62.04;96643.06;5095991;28;20743;-65
2021/10/02 00:54:32;;;;;;;8.40;6.97;;;;;;;16.74;62.11;96650.19;5095573;28;20424;-66
2021/10/02 00:56:58;;;;;;;8.30;6.60;;;;;;;16.79;62.09;96646.09;5091216;28;21047;-67
2021/10/02 00:59:29;;;;;;;9.27;6.70;;;;;;;16.82;61.94;96650.97;5095594;28;20529;-68
2021/10/02 01:02:04;;;;;;;9.90;6.83;;;;;;;16.77;61.92;96661.34;5096514;28;20185;-66
2021/10/02 01:04:39;;;;;;;9.90;7.10;;;;;;;16.53;62.79;96653.03;5097412;28;20419;-66
2021/10/02 01:07:22;;;;;;;8.60;6.60;;;;;;;16.40;63.23;96659.94;5100673;28;20441;-65
2021/10/02 01:10:28;;;;;;;12.63;7.20;;;;;;;16.48;62.87;96658.13;5100225;28;20878;-66
2021/10/02 01:13:03;;;;;;;8.67;6.50;;;;;;;16.54;62.75;96647.56;5100816;28;20839;-65
2021/10/02 01:15:47;;;;;;;7.03;6.33;;;;;;;16.51;62.76;96649.78;5100191;28;20559;-65
2021/10/02 01:18:24;;;;;;;14.03;7.30;;;;;;;16.61;62.48;96647.56;5096497;28;20549;-65
2021/10/02 01:21:02;;;;;;;8.00;6.30;;;;;;;16.41;63.14;96650.19;5094945;28;20793;-67
2021/10/02 01:23:40;;;;;;;9.30;6.47;;;;;;;16.71;62.28;96644.47;5093308;28;20423;-67
2021/10/02 01:26:24;;;;;;;7.80;6.23;;;;;;;16.76;62.11;96635.94;5095280;28;20443;-67
2021/10/02 01:28:54;;;;;;;7.33;6.50;;;;;;;16.90;61.44;96645.47;5089068;28;20495;-66
2021/10/02 01:31:31;;;;;;;8.60;6.43;;;;;;;16.95;61.29;96648.34;5094835;28;20770;-66
2021/10/02 01:34:06;;;;;;;6.37;5.60;;;;;;;16.92;61.29;96643.44;5094760;28;20922;-65
2021/10/02 01:36:54;;;;;;;10.77;6.20;;;;;;;16.87;61.53;96648.56;5092799;28;20814;-66
2021/10/02 01:47:56;;;;;;;7.50;6.30;;;;;;;17.04;60.85;96638.38;5091275;28;21005;-65
2021/10/02 01:50:27;;;;;;;8.07;6.20;;;;;;;16.99;61.08;96635.50;5074212;28;20540;-66
2021/10/02 01:52:55;;;;;;;8.43;6.40;;;;;;;16.98;61.37;96634.72;5074675;28;20962;-67
2021/10/02 01:55:23;;;;;;;8.13;6.67;;;;;;;17.04;61.06;96636.50;5074537;28;20443;-66
2021/10/02 01:57:57;;;;;;;8.53;6.97;;;;;;;17.08;60.87;96634.25;5073480;28;20452;-66
2021/10/02 02:00:23;;;;;;;9.83;6.13;;;;;;;17.07;60.86;96642.41;5074435;28;20862;-67
2021/10/02 02:02:52;;;;;;;6.83;6.00;;;;;;;16.92;61.47;96634.69;5081803;28;20428;-67
2021/10/02 02:05:20;;;;;;;7.40;6.40;;;;;;;17.02;61.10;96630.59;5074381;28;20216;-66
2021/10/02 02:07:50;;;;;;;8.73;6.07;;;;;;;17.09;60.85;96627.16;5073756;28;20473;-66
2021/10/02 02:10:17;;;;;;;6.80;6.00;;;;;;;16.94;61.20;96630.84;5065789;28;20432;-67
2021/10/02 02:12:43;;;;;;;8.23;6.10;;;;;;;17.01;61.04;96613.09;5074342;28;20458;-66
2021/10/02 02:15:11;;;;;;;8.50;6.40;;;;;;;17.07;60.83;96602.72;5074584;28;20548;-67
2021/10/02 02:17:51;;;;;;;6.60;6.00;;;;;;;17.10;60.46;96602.31;5092931;28;20832;-67
2021/10/02 02:20:32;;;;;;;9.20;6.77;;;;;;;17.11;60.51;96598.63;5093368;28;20437;-66
2021/10/02 02:22:58;;;;;;;7.73;6.00;;;;;;;17.11;60.56;96601.28;5091209;28;20419;-67
2021/10/02 02:25:24;;;;;;;7.47;6.20;;;;;;;17.12;60.48;96602.91;5093165;28;20946;-66
2021/10/02 02:27:50;;;;;;;7.33;5.60;;;;;;;17.08;60.55;96607.78;5087013;28;20469;-66
2021/10/02 02:30:15;;;;;;;6.90;5.67;;;;;;;17.11;60.41;96609.22;5093206;28;20207;-67
2021/10/02 02:32:41;;;;;;;8.50;5.50;;;;;;;17.08;60.39;96596.41;5093985;28;20212;-66
2021/10/02 02:35:08;;;;;;;7.30;6.10;;;;;;;17.12;60.26;96594.97;5092071;28;20640;-66
2021/10/02 02:37:33;;;;;;;7.47;5.73;;;;;;;17.08;60.42;96588.47;5072519;28;20209;-66
2021/10/02 02:40:00;;;;;;;6.33;5.73;;;;;;;17.08;60.18;96586.63;5091902;28;20427;-66
2021/10/02 02:42:25;;;;;;;8.90;5.60;;;;;;;17.09;60.22;96587.44;5092648;28;20189;-65
2021/10/02 02:44:52;;;;;;;7.60;5.77;;;;;;;17.08;60.15;96591.09;5091682;28;20515;-67
2021/10/02 02:47:25;;;;;;;9.07;5.87;;;;;;;17.00;60.38;96595.63;5091234;28;20284;-65
2021/10/02 02:50:00;;;;;;;6.60;5.23;;;;;;;16.94;60.63;96591.16;5091602;28;20473;-66
2021/10/02 02:52:51;;;;;;;9.30;6.57;;;;;;;16.99;60.41;96593.16;5090954;28;20519;-66
2021/10/02 02:55:20;;;;;;;6.80;6.10;;;;;;;17.01;60.48;96596.41;5090765;28;20544;-65
2021/10/02 02:57:54;;;;;;;8.07;5.77;;;;;;;16.99;60.34;96582.56;5085987;28;20988;-66
2021/10/02 03:00:22;;;;;;;14.73;6.20;;;;;;;16.96;60.41;96583.81;5092441;28;20415;-65
2021/10/02 03:03:02;;;;;;;6.40;5.70;;;;;;;16.94;60.47;96582.38;5090705;28;20429;-67
2021/10/02 03:05:29;;;;;;;8.00;6.00;;;;;;;16.95;60.25;96584.03;5089195;28;21002;-67
2021/10/02 03:08:09;;;;;;;8.00;5.90;;;;;;;16.90;60.43;96584.59;5089269;28;20473;-66
2021/10/02 03:10:35;;;;;;;10.60;6.07;;;;;;;16.82;60.50;96584.84;5090334;28;20435;-67
2021/10/02 03:13:03;;;;;;;8.43;6.40;;;;;;;16.76;60.38;96583.03;5089660;28;20420;-66
2021/10/02 03:15:30;;;;;;;8.90;6.07;;;;;;;16.79;60.42;96590.53;5081276;28;20455;-66
2021/10/02 03:17:55;;;;;;;6.43;5.70;;;;;;;16.86;60.00;96586.06;5090030;28;20475;-66
2021/10/02 03:20:21;;;;;;;8.77;6.07;;;;;;;16.90;60.00;96584.59;5090263;28;20459;-66
2021/10/02 03:22:49;;;;;;;7.00;5.70;;;;;;;16.91;59.80;96590.72;5089896;28;20443;-66
2021/10/02 03:25:15;;;;;;;7.90;5.70;;;;;;;16.91;59.82;96583.59;5083671;28;20664;-67
2021/10/02 03:27:41;;;;;;;9.10;5.00;;;;;;;16.88;59.92;96584.03;5090524;28;20420;-67
2021/10/02 03:30:07;;;;;;;7.77;5.80;;;;;;;16.89;59.88;96589.09;5089073;28;20427;-67
2021/10/02 03:32:33;;;;;;;7.87;6.30;;;;;;;16.89;60.06;96585.63;5090744;28;20432;-66
2021/10/02 03:34:58;;;;;;;6.87;5.70;;;;;;;16.84;60.31;96591.53;5091335;28;20430;-66
2021/10/02 03:37:24;;;;;;;7.37;5.70;;;;;;;16.83;60.28;96586.47;5091393;28;20244;-66
2021/10/02 03:39:53;;;;;;;6.20;5.37;;;;;;;16.80;60.53;96594.81;5091497;28;20200;-67
2021/10/02 03:42:22;;;;;;;8.20;6.27;;;;;;;16.74;60.87;96601.75;5091379;28;20911;-64
2021/10/02 03:44:50;;;;;;;7.77;6.60;;;;;;;16.71;61.01;96597.69;5090802;28;20507;-67
2021/10/02 03:47:18;;;;;;;11.13;7.00;;;;;;;16.72;61.02;96601.97;5083399;28;20419;-66
2021/10/02 03:49:45;;;;;;;6.90;5.90;;;;;;;16.73;61.04;96606.22;5090535;28;20420;-66
2021/10/02 03:52:12;;;;;;;8.60;6.23;;;;;;;16.72;61.22;96609.91;5092160;28;20519;-65
2021/10/02 03:54:37;;;;;;;7.00;6.07;;;;;;;16.73;61.24;96600.94;5091815;28;20420;-65
2021/10/02 03:57:03;;;;;;;8.43;6.13;;;;;;;16.73;61.37;96603.59;5090907;28;20462;-66
2021/10/02 03:59:29;;;;;;;11.70;7.17;;;;;;;16.66;61.32;96599.31;5090406;28;20610;-65
2021/10/02 04:01:55;;;;;;;8.33;6.93;;;;;;;16.59;61.74;96605.41;5091351;28;20427;-65
2021/10/02 04:04:22;;;;;;;9.40;6.87;;;;;;;16.57;61.81;96602.16;5091420;28;20922;-66
2021/10/02 04:06:49;;;;;;;7.50;6.20;;;;;;;16.57;61.99;96602.16;5091345;28;20523;-65
2021/10/02 04:09:15;;;;;;;6.83;6.13;;;;;;;16.51;62.29;96591.59;5082386;28;20423;-65
2021/10/02 04:11:40;;;;;;;7.33;6.10;;;;;;;16.56;62.07;96594.44;5091523;28;20515;-65
2021/10/02 04:14:06;;;;;;;7.50;5.73;;;;;;;16.56;61.96;96586.50;5091216;28;20182;-66
2021/10/02 04:16:31;;;;;;;11.67;6.37;;;;;;;16.55;62.10;96595.47;5090438;28;20201;-66
2021/10/02 04:18:58;;;;;;;7.77;6.50;;;;;;;16.54;62.17;96586.72;5088547;28;20181;-65
2021/10/02 04:21:24;;;;;;;8.73;6.37;;;;;;;16.49;62.22;96588.34;5091246;28;20218;-65
2021/10/02 04:23:51;;;;;;;7.23;6.50;;;;;;;16.42;62.42;96583.88;5089595;28;20431;-65
2021/10/02 04:26:17;;;;;;;10.40;6.57;;;;;;;16.42;62.28;96586.50;5090506;28;20537;-66
2021/10/02 04:28:43;;;;;;;9.00;6.03;;;;;;;16.45;62.27;96587.13;5091097;28;20557;-66
2021/10/02 04:31:09;;;;;;;7.53;6.30;;;;;;;16.48;62.25;96592.03;5090804;28;20432;-65
2021/10/02 04:33:35;;;;;;;8.27;5.90;;;;;;;16.41;62.28;96584.09;5091367;28;20189;-66
2021/10/02 04:36:01;;;;;;;8.00;6.00;;;;;;;16.40;62.37;96588.56;5090376;28;20213;-66
2021/10/02 04:38:26;;;;;;;7.30;6.30;;;;;;;16.38;62.53;96597.72;5089678;28;20972;-66
2021/10/02 04:40:55;;;;;;;9.70;6.87;;;;;;;16.34;62.64;96601.78;5091066;28;20188;-65
2021/10/02 04:43:21;;;;;;;9.57;6.13;;;;;;;16.34;62.80;96601.78;5090922;28;20247;-66
2021/10/02 04:45:47;;;;;;;8.03;6.33;;;;;;;16.34;62.70;96602.59;5084332;28;20822;-65
2021/10/02 04:48:13;;;;;;;6.50;5.80;;;;;;;16.33;62.50;96594.84;5089177;28;20412;-67
2021/10/02 04:50:38;;;;;;;9.83;6.60;;;;;;;16.33;62.45;96594.84;5091061;28;20559;-66
2021/10/02 04:53:04;;;;;;;7.20;5.90;;;;;;;16.26;62.60;96584.28;5090838;28;20182;-67
2021/10/02 04:55:30;;;;;;;7.37;6.30;;;;;;;16.35;62.35;96588.38;5089862;28;20700;-67
2021/10/02 04:57:56;;;;;;;8.43;5.77;;;;;;;16.31;62.61;96584.50;5090444;28;20228;-66
2021/10/02 05:00:22;;;;;;;8.03;6.23;;;;;;;16.32;62.07;96582.69;5090910;28;20435;-67
2021/10/02 05:02:48;;;;;;;9.00;5.17;;;;;;;16.13;61.81;96585.09;5090212;28;20197;-67
2021/10/02 05:05:13;;;;;;;5.90;5.30;;;;;;;16.32;61.13;96582.69;5080486;28;20754;-66
2021/10/02 05:07:39;;;;;;;7.33;5.57;;;;;;;16.33;60.62;96579.81;5090653;28;20181;-66
2021/10/02 05:10:05;;;;;;;8.57;4.50;;;;;;;16.22;60.28;96583.06;5090692;28;20213;-66
2021/10/02 05:12:31;;;;;;;7.00;4.70;;;;;;;16.34;59.54;96581.44;5089967;28;20186;-66
2021/10/02 05:14:56;;;;;;;7.03;5.63;;;;;;;16.40;59.37;96585.91;5085517;28;20435;-66
2021/10/02 05:17:22;;;;;;;5.77;4.33;;;;;;;16.46;59.26;96586.13;5090189;28;20274;-66
2021/10/02 05:19:48;;;;;;;5.40;4.37;;;;;;;16.40;59.38;96579.81;5091006;28;20196;-65
2021/10/02 05:22:14;;;;;;;5.73;4.70;;;;;;;16.46;59.14;96578.19;5082747;28;20861;-65
2021/10/02 05:24:40;;;;;;;9.00;4.70;;;;;;;16.51;59.13;96570.44;5102271;28;20418;-65
2021/10/02 05:27:08;;;;;;;7.57;5.20;;;;;;;16.49;58.89;96572.50;5103177;28;20336;-67
2021/10/02 05:29:35;;;;;;;7.73;5.17;;;;;;;16.52;59.01;96580.00;5093333;28;20186;-65
2021/10/02 05:32:01;;;;;;;7.40;4.80;;;;;;;16.49;59.07;96572.50;5089185;28;20430;-66
2021/10/02 05:34:27;;;;;;;5.50;4.90;;;;;;;16.48;59.16;96570.88;5091871;28;20523;-66
2021/10/02 05:36:52;;;;;;;7.30;4.83;;;;;;;16.52;58.94;96564.13;5092119;28;20471;-66
2021/10/02 05:39:18;;;;;;;7.70;4.70;;;;;;;16.45;59.47;96560.69;5096652;28;20181;-66
2021/10/02 05:41:43;;;;;;;6.90;5.37;;;;;;;16.36;59.76;96555.63;5103684;28;20249;-66
2021/10/02 05:44:09;;;;;;;8.13;6.17;;;;;;;16.04;61.39;96554.63;5109837;28;20174;-67
2021/10/02 05:46:34;;;;;;;10.20;6.30;;;;;;;16.24;61.07;96560.69;5106524;28;20202;-66
2021/10/02 05:49:00;;;;;;;8.50;6.00;;;;;;;16.24;61.19;96560.69;5093571;28;20182;-67
2021/10/02 05:51:26;;;;;;;6.53;5.60;;;;;;;16.37;61.01;96559.91;5093932;28;20182;-66
2021/10/02 05:53:51;;;;;;;6.10;5.50;;;;;;;16.49;60.84;96553.97;5093803;28;20270;-66
2021/10/02 05:56:17;;;;;;;7.10;5.70;;;;;;;16.45;61.21;96558.03;5093837;28;20229;-66
2021/10/02 05:58:43;;;;;;;6.60;5.43;;;;;;;16.50;61.14;96547.66;5092203;28;20178;-67
2021/10/02 06:01:09;;;;;;;10.30;6.00;;;;;;;16.60;60.95;96553.34;5093558;28;20467;-67
2021/10/02 06:03:34;;;;;;;11.57;6.73;;;;;;;16.66;61.02;96560.44;5093973;28;20208;-64
2021/10/02 06:06:00;;;;;;;7.80;6.73;;;;;;;16.53;61.51;96557.81;5094040;28;20201;-66
2021/10/02 06:08:29;;;;;;;13.43;6.70;;;;;;;16.65;61.42;96558.81;5092371;28;20539;-65
2021/10/02 06:10:56;;;;;;;11.97;6.43;;;;;;;16.44;62.36;96559.88;5093781;28;20173;-66
2021/10/02 06:13:25;;;;;;;9.17;7.00;;;;;;;16.36;62.64;96563.56;5093180;28;20426;-66
2021/10/02 06:15:51;;;;;;;9.00;6.40;;;;;;;16.51;62.12;96551.91;5094101;28;20442;-65
2021/10/02 06:18:17;;;;;;;8.00;6.13;;;;;;;16.48;62.48;96561.09;5093667;28;20448;-65
2021/10/02 06:20:42;;;;;;;7.60;6.47;;;;;;;16.45;62.69;96563.34;5093485;28;20231;-66
2021/10/02 06:23:08;;;;;;;11.43;6.40;;;;;;;16.53;62.08;96558.66;5092082;28;20221;-66
2021/10/02 06:25:33;;;;;;;6.90;6.20;;;;;;;16.52;62.31;96564.13;5093209;28;20194;-65
2021/10/02 06:28:00;;;;;;;7.30;5.93;;;;;;;16.45;62.70;96560.69;5091070;28;20655;-67
2021/10/02 06:30:26;;;;;;;10.60;6.40;;;;;;;16.32;63.12;96562.31;5091895;28;20226;-66
2021/10/02 06:32:52;;;;;;;8.60;6.77;;;;;;;16.50;62.54;96560.91;5093608;28;20412;-65
2021/10/02 06:35:18;;;;;;;14.30;9.50;;;;;;;16.53;62.42;96557.81;5093695;28;20289;-66
2021/10/02 06:37:44;;;;;;;19.17;7.20;;;;;;;16.56;62.24;96568.00;5093418;28;20539;-67
2021/10/02 06:40:10;;;;;;;12.30;8.30;;;;;;;16.56;62.31;96558.25;5093487;28;20189;-66
2021/10/02 06:42:36;;;;;;;13.70;7.00;;;;;;;16.46;62.49;96562.31;5094196;28;20918;-67
2021/10/02 06:45:03;;;;;;;8.73;6.67;;;;;;;16.64;62.11;96564.31;5092520;28;20210;-66
2021/10/02 06:47:29;;;;;;;9.27;6.53;;;;;;;16.38;63.07;96568.63;5094024;28;20857;-66
2021/10/02 06:49:57;;;;;;;7.87;6.20;;;;;;;16.46;62.92;96567.59;5093856;28;20558;-66
2021/10/02 06:52:27;;;;;;;12.33;6.73;;;;;;;16.59;62.42;96557.00;5094305;28;20640;-66
2021/10/02 06:54:53;;;;;;;11.53;7.10;;;;;;;16.69;62.14;96557.38;5094964;28;20419;-66
2021/10/02 06:57:19;;;;;;;7.70;6.60;;;;;;;16.59;62.54;96572.88;5093555;28;20460;-65
2021/10/02 06:59:45;;;;;;;10.63;7.07;;;;;;;16.59;62.52;96563.09;5108195;28;20415;-68
2021/10/02 07:02:10;;;;;;;7.57;6.30;;;;;;;16.77;61.75;96566.09;5110182;28;20185;-66
2021/10/02 07:04:36;;;;;;;12.63;6.83;;;;;;;16.96;61.04;96567.09;5100565;28;20672;-66
2021/10/02 07:07:02;;;;;;;8.37;6.40;;;;;;;16.99;60.82;96562.22;5104632;28;20227;-65
2021/10/02 07:09:27;;;;;;;8.30;6.50;;;;;;;16.99;60.44;96556.94;5103707;28;20213;-66
2021/10/02 07:11:53;;;;;;;9.33;6.37;;;;;;;17.12;60.04;96557.91;5102872;28;20280;-67
2021/10/02 07:14:19;;;;;;;6.93;5.23;;;;;;;16.88;60.83;96568.16;5103743;28;20182;-67
2021/10/02 07:16:45;;;;;;;8.93;5.97;;;;;;;17.18;59.50;96571.13;5096047;28;20292;-66
2021/10/02 07:19:11;;;;;;;6.60;5.57;;;;;;;17.27;58.83;96569.03;5092985;28;20193;-67
2021/10/02 07:21:36;;;;;;;6.60;5.73;;;;;;;17.02;59.47;96563.63;5092613;28;20419;-66
2021/10/02 07:24:02;;;;;;;7.13;5.90;;;;;;;17.32;58.54;96561.28;5092271;28;20213;-66
2021/10/02 07:26:27;;;;;;;7.83;5.93;;;;;;;17.14;58.99;96563.78;5092002;28;20240;-66
2021/10/02 07:28:53;;;;;;;6.57;5.43;;;;;;;17.32;57.91;96563.94;5089912;28;20548;-66
2021/10/02 07:31:19;;;;;;;9.00;5.63;;;;;;;17.42;57.65;96571.41;5092496;28;20181;-66
2021/10/02 07:33:45;;;;;;;8.13;6.20;;;;;;;17.49;57.48;96571.38;5091659;28;20178;-67
2021/10/02 07:36:11;;;;;;;9.30;6.10;;;;;;;17.54;57.07;96568.91;5091632;28;20554;-66
2021/10/02 07:38:36;;;;;;;6.87;5.83;;;;;;;17.47;56.89;96568.94;5091694;28;20209;-67
2021/10/02 07:41:02;;;;;;;6.73;5.40;;;;;;;17.63;56.36;96566.81;5091168;28;20190;-66
2021/10/02 07:43:28;;;;;;;9.73;5.37;;;;;;;17.85;56.24;96567.31;5086824;28;20721;-67
2021/10/02 07:46:01;;;;;;;7.30;5.10;;;;;;;17.94;55.71;96555.41;5092501;28;20520;-67
2021/10/02 07:48:27;;;;;;;6.03;5.20;;;;;;;18.03;54.81;96557.81;5095720;28;20424;-67
2021/10/02 07:50:54;;;;;;;7.27;5.23;;;;;;;18.39;54.21;96557.13;5092114;28;20423;-67
2021/10/02 07:53:20;;;;;;;6.17;4.90;;;;;;;17.95;54.92;96559.69;5092111;28;20263;-67
2021/10/02 07:55:48;;;;;;;5.50;4.60;;;;;;;18.27;53.11;96566.81;5092090;28;20509;-66
2021/10/02 07:58:14;;;;;;;5.83;4.70;;;;;;;18.46;52.27;96559.72;5079935;28;20456;-67
2021/10/02 08:00:40;;;;;;;8.23;5.07;;;;;;;18.58;52.02;96562.47;5091807;28;20437;-65
2021/10/02 08:03:05;;;;;;;6.50;4.23;;;;;;;18.79;51.81;96557.75;5091642;28;20942;-68
2021/10/02 08:05:31;;;;;;;6.03;5.03;;;;;;;18.71;51.40;96561.50;5093660;28;20556;-67
2021/10/02 08:07:57;;;;;;;6.70;4.43;;;;;;;19.18;50.19;96556.50;5089762;28;20178;-67
2021/10/02 08:10:26;;;;;;;5.77;4.43;;;;;;;19.32;48.17;96561.66;5090393;28;20426;-68
2021/10/02 08:12:53;;;;;;;5.60;3.53;;;;;;;19.49;47.58;96562.69;5091585;28;20922;-65
2021/10/02 08:15:21;;;;;;;4.07;3.53;;;;;;;19.42;47.47;96546.00;5094228;28;20447;-66
2021/10/02 08:17:50;;;;;;;4.43;3.80;;;;;;;19.79;46.64;96556.53;5092075;28;20447;-67
2021/10/02 08:20:18;;;;;;;4.10;3.40;;;;;;;19.98;45.82;96548.50;5091334;28;20420;-65
2021/10/02 08:22:49;;;;;;;4.13;3.53;;;;;;;20.02;45.09;96548.84;5091605;28;20423;-65
2021/10/02 08:25:15;;;;;;;3.63;2.97;;;;;;;20.09;43.84;96554.91;5092771;28;20435;-67
2021/10/02 08:27:42;;;;;;;8.57;3.17;;;;;;;20.17;43.63;96551.91;5090256;28;20477;-66
2021/10/02 08:30:09;;;;;;;3.03;2.73;;;;;;;20.14;42.83;96556.88;5089648;28;20767;-66
2021/10/02 08:32:35;;;;;;;3.47;2.90;;;;;;;20.19;42.41;96549.81;5090883;28;20793;-67
2021/10/02 08:35:03;;;;;;;3.73;3.00;;;;;;;20.44;41.64;96550.63;5090238;28;20431;-66
2021/10/02 08:37:28;;;;;;;3.47;3.00;;;;;;;20.30;41.60;96553.50;5090092;28;20202;-66
2021/10/02 08:39:54;;;;;;;3.43;2.73;;;;;;;20.71;40.97;96549.13;5090684;28;20503;-67
2021/10/02 08:42:20;;;;;;;3.60;2.63;;;;;;;20.47;40.65;96551.00;5090905;28;20265;-67
2021/10/02 08:44:46;;;;;;;3.83;3.00;;;;;;;20.75;40.59;96543.38;5089147;28;20205;-66
2021/10/02 08:47:12;;;;;;;4.30;3.30;;;;;;;20.92;39.53;96546.91;5089122;28;20448;-66
2021/10/02 08:49:43;;;;;;;8.57;2.73;;;;;;;21.26;39.06;96540.91;5089251;28;20454;-67
2021/10/02 08:52:09;;;;;;;4.13;2.27;;;;;;;21.51;38.26;96537.94;5091135;28;20416;-67
2021/10/02 08:54:40;;;;;;;3.20;2.50;;;;;;;21.78;37.94;96538.16;5091079;28;20470;-66
2021/10/02 08:57:08;;;;;;;2.50;2.30;;;;;;;21.73;37.33;96543.44;5090613;28;20482;-67
2021/10/02 08:59:37;;;;;;;2.03;1.83;;;;;;;21.27;37.63;96545.19;5090423;28;20415;-68
2021/10/02 09:02:03;;;;;;;3.33;2.97;;;;;;;21.46;37.56;96536.00;5097665;28;20422;-67
2021/10/02 09:04:29;;;;;;;3.03;2.73;;;;;;;21.87;36.52;96530.59;5090145;28;20451;-66
2021/10/02 09:06:54;;;;;;;2.67;2.20;;;;;;;22.02;36.33;96526.56;5090787;28;20443;-67
2021/10/02 09:09:21;;;;;;;3.37;2.17;;;;;;;21.99;36.54;96532.38;5094777;28;20601;-67
2021/10/02 09:11:46;;;;;;;5.33;2.60;;;;;;;22.11;35.94;96519.75;5094693;28;20659;-66
2021/10/02 09:14:12;;;;;;;8.70;3.17;;;;;;;22.36;35.72;96519.34;5094811;28;20435;-65
2021/10/02 09:16:40;;;;;;;3.17;2.13;;;;;;;22.38;35.69;96519.88;5094434;28;20202;-65
2021/10/02 09:19:08;;;;;;;2.80;2.50;;;;;;;22.53;35.52;96516.69;5093119;28;20323;-66
2021/10/02 09:22:06;;;;;;;2.10;1.90;;;;;;;22.64;34.95;96511.47;5094480;28;20430;-67
2021/10/02 09:24:37;;;;;;;2.67;2.33;;;;;;;22.76;34.47;96506.00;5089829;28;20940;-66
2021/10/02 09:27:04;;;;;;;5.10;2.77;;;;;;;22.55;34.88;96500.41;5095031;28;20456;-66
2021/10/02 09:29:38;;;;;;;4.77;2.30;;;;;;;22.33;35.15;96500.34;5091361;28;20956;-68
2021/10/02 09:32:09;;;;;;;10.60;2.37;;;;;;;22.62;35.26;96498.34;5094104;28;20419;-65
2021/10/02 09:34:53;;;;;;;3.37;2.70;;;;;;;22.58;35.56;96496.44;5092856;28;20828;-68
2021/10/02 09:37:33;;;;;;;4.50;2.50;;;;;;;22.64;35.65;96498.13;5086343;28;20463;-66
2021/10/02 09:40:08;;;;;;;4.73;2.60;;;;;;;22.86;35.43;96488.25;5094098;28;20431;-68
2021/10/02 09:42:35;;;;;;;4.17;3.30;;;;;;;22.18;36.60;96495.59;5094564;28;20454;-66
2021/10/02 09:45:09;;;;;;;3.63;3.20;;;;;;;22.73;36.31;96495.84;5094435;28;20455;-66
2021/10/02 09:47:37;;;;;;;4.50;2.70;;;;;;;22.83;36.22;96498.63;5093961;28;20993;-65
2021/10/02 09:50:11;;;;;;;3.83;2.93;;;;;;;22.29;37.18;96489.34;5093679;28;20412;-65
2021/10/02 09:52:42;;;;;;;2.70;2.50;;;;;;;22.83;36.71;96483.41;5094398;28;20431;-65
2021/10/02 09:55:24;;;;;;;2.90;2.53;;;;;;;23.28;36.21;96476.19;5094081;28;20424;-66
2021/10/02 09:57:56;;;;;;;3.03;2.70;;;;;;;23.32;36.33;96476.47;5092062;28;20447;-68
2021/10/02 10:00:25;;;;;;;7.40;4.60;;;;;;;22.56;37.77;96472.66;5093785;28;20526;-66
2021/10/02 10:02:52;;;;;;;10.83;3.43;;;;;;;22.06;38.47;96460.97;5093809;28;20881;-66
2021/10/02 10:05:17;;;;;;;6.97;3.57;;;;;;;22.99;37.29;96464.88;5093537;28;20435;-65
2021/10/02 10:07:55;;;;;;;5.07;3.00;;;;;;;23.16;37.07;96460.28;5092106;28;20416;-67
2021/10/02 10:10:22;;;;;;;3.47;3.00;;;;;;;23.10;36.84;96455.13;5093566;28;20268;-66
2021/10/02 10:12:47;;;;;;;7.23;3.27;;;;;;;23.16;37.00;96454.94;5093616;28;20435;-65
2021/10/02 10:15:37;;;;;;;4.87;3.10;;;;;;;23.59;36.20;96446.25;5094599;28;20779;-65
2021/10/02 10:18:03;;;;;;;4.50;3.23;;;;;;;23.40;36.78;96448.50;5094819;28;20197;-62
2021/10/02 10:20:31;;;;;;;3.60;3.03;;;;;;;23.57;36.18;96443.03;5092956;28;20426;-66
2021/10/02 10:22:59;;;;;;;3.63;3.20;;;;;;;23.42;36.99;96441.03;5097163;28;20454;-66
2021/10/02 10:25:24;;;;;;;5.93;4.10;;;;;;;23.38;37.07;96440.72;5105703;28;20447;-66
2021/10/02 10:27:50;;;;;;;7.13;4.03;;;;;;;23.67;36.77;96431.63;5103846;28;20543;-66
2021/10/02 10:30:22;;;;;;;4.97;3.70;;;;;;;22.89;38.00;96440.75;5095381;28;20205;-67
2021/10/02 10:33:02;;;;;;;8.50;3.40;;;;;;;22.91;38.16;96442.09;5095088;28;20182;-68
2021/10/02 10:35:33;;;;;;;3.93;3.50;;;;;;;23.23;37.80;96433.38;5087740;28;20462;-66
2021/10/02 10:37:58;;;;;;;3.93;3.53;;;;;;;23.53;37.83;96431.25;5093470;28;20926;-66
2021/10/02 10:40:24;;;;;;;3.63;3.33;;;;;;;22.79;38.84;96438.75;5105095;28;20413;-66
2021/10/02 10:42:52;;;;;;;5.77;3.80;;;;;;;23.27;38.06;96425.66;5105364;28;20178;-65
2021/10/02 10:45:18;;;;;;;3.00;2.80;;;;;;;23.07;38.69;96424.34;5106325;28;20186;-66
2021/10/02 10:47:45;;;;;;;8.13;5.73;;;;;;;23.13;38.24;96423.38;5095188;28;20416;-66
2021/10/02 10:50:11;;;;;;;5.83;4.00;;;;;;;23.37;37.85;96412.38;5093106;28;20432;-65
2021/10/02 10:52:38;;;;;;;5.30;4.33;;;;;;;23.42;37.69;96419.66;5093575;28;20420;-66
2021/10/02 10:55:11;;;;;;;4.40;3.80;;;;;;;23.73;37.39;96419.91;5096012;28;20470;-67
2021/10/02 10:57:41;;;;;;;8.20;3.83;;;;;;;23.58;37.44;96412.56;5093654;28;20890;-65
2021/10/02 11:00:30;;;;;;;5.70;3.73;;;;;;;23.54;37.64;96411.47;5092874;28;20415;-65
2021/10/02 11:02:59;;;;;;;3.97;3.50;;;;;;;24.33;36.54;96401.81;5096358;28;21003;-67
2021/10/02 11:05:39;;;;;;;3.40;3.10;;;;;;;24.48;35.85;96403.78;5093715;28;20471;-66
2021/10/02 11:08:06;;;;;;;4.50;2.83;;;;;;;24.75;35.73;96400.16;5097461;28;20416;-66
2021/10/02 11:10:41;;;;;;;5.80;3.30;;;;;;;24.66;36.01;96393.66;5101520;28;20408;-67
2021/10/02 11:13:07;;;;;;;9.13;4.80;;;;;;;25.13;35.07;96395.44;5098013;28;20450;-67
2021/10/02 11:15:33;;;;;;;6.17;4.60;;;;;;;25.20;34.26;96386.31;5099044;28;21072;-67
2021/10/02 11:17:59;;;;;;;5.60;4.17;;;;;;;24.92;34.90;96381.19;5096636;28;20472;-68
2021/10/02 11:20:33;;;;;;;4.77;3.30;;;;;;;25.51;33.86;96365.72;5095603;28;20186;-68
2021/10/02 11:23:40;;;;;;;4.60;3.80;;;;;;;25.12;34.45;96369.69;5093171;28;20257;-66
2021/10/02 11:26:12;;;;;;;4.60;3.27;;;;;;;25.15;33.93;96365.66;5092503;28;20440;-66
2021/10/02 11:28:39;;;;;;;4.13;3.70;;;;;;;25.41;33.97;96361.16;5091531;28;20412;-65
2021/10/02 11:31:16;;;;;;;5.90;4.97;;;;;;;25.87;33.01;96357.63;5092645;28;20450;-65
2021/10/02 11:33:50;;;;;;;26.03;11.77;;;;;;;25.98;32.96;96347.66;5093087;28;20453;-66
2021/10/02 11:36:27;;;;;;;17.17;9.20;;;;;;;25.98;32.93;96346.84;5092875;28;20468;-68
2021/10/02 11:39:08;;;;;;;7.63;4.53;;;;;;;26.09;33.10;96342.25;5093072;28;20431;-67
2021/10/02 11:41:36;;;;;;;7.50;5.30;;;;;;;26.32;33.05;96346.25;5094135;28;20430;-66
2021/10/02 11:44:02;;;;;;;13.20;6.93;;;;;;;26.07;33.08;96337.19;5094255;28;20428;-66
2021/10/02 11:46:27;;;;;;;5.30;4.17;;;;;;;25.88;32.61;96331.59;5093178;28;20496;-66
2021/10/02 11:48:53;;;;;;;3.93;3.03;;;;;;;25.48;33.06;96327.91;5091295;28;20177;-68
2021/10/02 11:51:19;;;;;;;3.03;2.83;;;;;;;26.19;32.82;96326.16;5093095;28;20183;-66
2021/10/02 11:54:02;;;;;;;5.00;3.93;;;;;;;26.05;32.88;96324.00;5092989;28;20635;-65
2021/10/02 11:56:29;;;;;;;5.43;3.17;;;;;;;26.67;31.22;96315.69;5091254;28;20309;-67
2021/10/02 11:58:58;;;;;;;3.60;3.00;;;;;;;26.74;30.81;96314.59;5091300;28;20519;-67
2021/10/02 12:01:30;;;;;;;4.23;2.93;;;;;;;27.01;30.13;96318.75;5091245;28;20948;-68
2021/10/02 12:04:04;;;;;;;3.53;2.83;;;;;;;27.14;29.88;96310.84;5091220;28;20465;-67
2021/10/02 12:06:31;;;;;;;4.07;2.90;;;;;;;27.25;29.93;96314.25;5092496;28;20926;-68
2021/10/02 12:08:58;;;;;;;5.43;3.80;;;;;;;26.61;31.24;96310.63;5091858;28;20450;-65
2021/10/02 12:11:24;;;;;;;3.90;3.03;;;;;;;27.13;30.27;96301.16;5091309;28;20972;-66
2021/10/02 12:13:54;;;;;;;3.37;3.07;;;;;;;27.40;29.94;96289.13;5090717;28;20427;-66
2021/10/02 12:16:28;;;;;;;4.17;2.90;;;;;;;27.57;30.27;96277.16;5091439;28;20599;-66
2021/10/02 12:19:08;;;;;;;7.70;3.83;;;;;;;27.56;30.05;96275.56;5091028;28;20846;-68
2021/10/02 12:21:43;;;;;;;4.90;2.90;;;;;;;27.67;30.27;96271.66;5091228;28;20449;-67
2021/10/02 12:24:23;;;;;;;4.70;2.90;;;;;;;28.32;29.08;96273.09;5090856;28;20427;-67
2021/10/02 12:27:01;;;;;;;4.07;2.70;;;;;;;28.35;28.95;96271.69;5089466;28;20440;-65
2021/10/02 12:29:28;;;;;;;3.87;2.57;;;;;;;28.41;28.40;96262.47;5089707;28;20483;-67